Time;durP1;ratioP1;P1;durP2;ratioP2;P2;SDS_P1;SDS_P2;PMS_P1;PMS_P2;Temp;Humidity;BMP_temperature;BMP_pressure;BME280_temperature;BME280_humidity;BME280_pressure;Samples;Min_cycle;Max_cycle;Signal;HPM_P1;HPM_P2
2021/06/28 00:00:06;;;;;;;12.90;11.90;;;16.80;85.20;;;;;;4913758;29;21154;-54
2021/06/28 00:02:32;;;;;;;12.67;11.60;;;16.80;81.60;;;;;;4915786;29;21205;-58
2021/06/28 00:04:58;;;;;;;12.20;11.20;;;16.80;83.40;;;;;;4925977;29;20581;-58
2021/06/28 00:07:24;;;;;;;12.67;11.60;;;16.80;81.50;;;;;;4913846;29;20449;-57
2021/06/28 00:09:49;;;;;;;13.70;11.63;;;16.80;82.00;;;;;;4912894;29;21191;-55
2021/06/28 00:12:15;;;;;;;12.27;11.37;;;16.80;83.50;;;;;;4913351;29;20196;-55
2021/06/28 00:14:41;;;;;;;12.20;11.20;;;16.70;86.40;;;;;;4897905;29;20203;-57
2021/06/28 00:17:07;;;;;;;12.30;11.40;;;16.70;89.60;;;;;;4913992;29;20188;-57
2021/06/28 00:19:32;;;;;;;12.60;11.50;;;16.70;89.70;;;;;;4921970;29;20492;-54
2021/06/28 00:21:58;;;;;;;11.67;10.70;;;16.60;90.80;;;;;;4921486;29;20300;-56
2021/06/28 00:24:23;;;;;;;13.03;11.90;;;16.60;91.10;;;;;;4922460;29;20221;-56
2021/06/28 00:26:49;;;;;;;13.10;11.90;;;16.60;90.80;;;;;;4921851;29;20345;-55
2021/06/28 00:29:15;;;;;;;13.10;12.00;;;16.60;91.30;;;;;;4921604;29;20245;-57
2021/06/28 00:31:40;;;;;;;13.40;12.30;;;16.60;91.60;;;;;;4931220;29;20349;-57
2021/06/28 00:34:06;;;;;;;12.60;11.60;;;16.50;90.80;;;;;;4926404;29;20248;-58
2021/06/28 00:36:32;;;;;;;13.80;12.60;;;16.60;85.50;;;;;;4936884;29;20203;-56
2021/06/28 00:38:57;;;;;;;13.40;12.23;;;16.60;81.90;;;;;;4931622;29;20200;-57
2021/06/28 00:41:23;;;;;;;13.23;12.13;;;16.50;83.90;;;;;;4925086;29;20537;-55
2021/06/28 00:43:48;;;;;;;13.97;12.77;;;16.50;87.60;;;;;;4927478;29;20258;-57
2021/06/28 00:46:14;;;;;;;13.23;12.23;;;16.50;88.90;;;;;;4922439;29;20188;-56
2021/06/28 00:48:40;;;;;;;13.00;11.87;;;16.50;86.80;;;;;;4933185;29;20201;-58
2021/06/28 00:51:05;;;;;;;11.80;10.80;;;16.50;88.80;;;;;;4919442;29;20302;-57
2021/06/28 00:53:31;;;;;;;12.93;11.83;;;16.50;90.10;;;;;;4934580;29;20219;-56
2021/06/28 00:56:09;;;;;;;13.00;11.80;;;16.50;89.70;;;;;;4928673;29;20697;-56
2021/06/28 00:58:39;;;;;;;13.93;12.73;;;16.50;86.40;;;;;;4926375;29;20439;-56
2021/06/28 01:01:05;;;;;;;13.90;12.70;;;16.40;90.70;;;;;;4929491;29;20445;-62
2021/06/28 01:03:31;;;;;;;13.63;12.43;;;16.40;92.60;;;;;;4936457;29;20474;-56
2021/06/28 01:05:58;;;;;;;13.40;12.20;;;16.40;93.20;;;;;;4935976;29;20434;-57
2021/06/28 01:08:23;;;;;;;13.80;12.60;;;16.40;93.40;;;;;;4934263;29;20208;-55
2021/06/28 01:10:49;;;;;;;12.50;11.50;;;16.40;94.10;;;;;;4928098;29;20436;-57
2021/06/28 01:13:14;;;;;;;14.20;13.00;;;16.30;95.40;;;;;;4931938;29;20196;-60
2021/06/28 01:15:40;;;;;;;13.60;12.33;;;16.30;95.50;;;;;;4923260;29;20200;-56
2021/06/28 01:18:08;;;;;;;14.60;13.30;;;16.30;94.50;;;;;;4924836;29;20198;-56
2021/06/28 01:20:34;;;;;;;13.70;12.40;;;16.30;94.80;;;;;;4933787;29;20445;-55
2021/06/28 01:23:20;;;;;;;14.37;13.07;;;16.30;94.70;;;;;;4933980;29;20466;-56
2021/06/28 01:25:48;;;;;;;13.63;12.43;;;16.30;93.50;;;;;;4932661;29;20801;-55
2021/06/28 01:28:15;;;;;;;13.57;12.47;;;16.30;93.80;;;;;;4934312;29;20440;-57
2021/06/28 01:30:41;;;;;;;13.47;12.37;;;16.40;91.50;;;;;;4937596;29;20431;-57
2021/06/28 01:33:06;;;;;;;13.03;12.03;;;16.30;87.10;;;;;;4933424;29;20455;-57
2021/06/28 01:35:32;;;;;;;13.43;12.33;;;16.40;86.50;;;;;;4937448;29;20442;-56
2021/06/28 01:37:58;;;;;;;14.00;12.70;;;16.40;86.20;;;;;;4930127;29;20203;-57
2021/06/28 01:40:23;;;;;;;13.93;12.83;;;16.40;84.60;;;;;;4938596;29;20243;-53
2021/06/28 01:42:49;;;;;;;13.83;12.70;;;16.50;82.20;;;;;;4930892;29;20215;-57
2021/06/28 01:45:21;;;;;;;13.00;11.90;;;16.40;80.90;;;;;;4936224;29;20619;-58
2021/06/28 01:47:48;;;;;;;13.67;12.40;;;16.50;77.00;;;;;;4929295;29;20455;-57
2021/06/28 01:50:15;;;;;;;12.67;11.43;;;16.50;72.70;;;;;;4936095;29;20440;-57
2021/06/28 01:52:41;;;;;;;14.90;13.57;;;16.40;72.30;;;;;;4929060;29;20547;-56
2021/06/28 01:55:09;;;;;;;14.07;12.93;;;16.50;74.00;;;;;;4920696;29;20916;-57
2021/06/28 01:57:39;;;;;;;13.23;12.00;;;16.50;76.90;;;;;;4937962;29;20453;-57
2021/06/28 02:00:06;;;;;;;14.50;13.20;;;16.40;78.90;;;;;;4934415;29;20424;-57
2021/06/28 02:02:32;;;;;;;13.60;12.40;;;16.40;79.70;;;;;;4917006;29;20565;-53
2021/06/28 02:04:57;;;;;;;14.07;12.87;;;16.40;80.80;;;;;;4915370;29;20527;-57
2021/06/28 02:07:24;;;;;;;13.70;12.60;;;16.40;82.30;;;;;;4930142;29;20240;-55
2021/06/28 02:09:50;;;;;;;13.23;12.20;;;16.40;82.80;;;;;;4933637;29;20512;-56
2021/06/28 02:12:16;;;;;;;13.77;12.57;;;16.50;83.30;;;;;;4933575;29;20558;-57
2021/06/28 02:14:41;;;;;;;14.83;13.63;;;16.50;81.80;;;;;;4925410;29;20477;-57
2021/06/28 02:17:07;;;;;;;14.07;12.87;;;16.50;76.70;;;;;;4919377;29;20283;-56
2021/06/28 02:19:33;;;;;;;13.87;12.77;;;16.50;75.70;;;;;;4916774;29;20597;-56
2021/06/28 02:21:59;;;;;;;15.00;13.50;;;16.50;73.00;;;;;;4916390;29;20193;-58
2021/06/28 02:24:24;;;;;;;13.47;12.27;;;16.50;72.10;;;;;;4921590;29;20228;-57
2021/06/28 02:26:50;;;;;;;13.73;12.63;;;16.50;71.70;;;;;;4932559;29;20451;-56
2021/06/28 02:29:16;;;;;;;14.80;13.50;;;16.50;71.30;;;;;;4922752;29;20513;-63
2021/06/28 02:31:42;;;;;;;14.37;13.17;;;16.60;68.80;;;;;;4916757;29;20703;-57
2021/06/28 02:34:08;;;;;;;13.90;12.63;;;16.60;69.40;;;;;;4917593;29;20859;-57
2021/06/28 02:36:34;;;;;;;14.70;13.50;;;16.60;68.60;;;;;;4918965;29;20461;-57
2021/06/28 02:39:00;;;;;;;14.07;12.87;;;16.60;69.00;;;;;;4916038;29;20445;-62
2021/06/28 02:41:27;;;;;;;14.00;12.63;;;16.60;62.40;;;;;;4914668;29;20296;-56
2021/06/28 02:43:53;;;;;;;13.83;12.70;;;16.50;57.90;;;;;;4919302;29;20478;-58
2021/06/28 02:46:20;;;;;;;14.03;12.93;;;16.60;58.50;;;;;;4922995;29;20830;-57
2021/06/28 02:48:46;;;;;;;14.60;13.40;;;16.60;59.10;;;;;;4897493;29;20531;-57
2021/06/28 02:51:14;;;;;;;15.13;13.73;;;16.60;58.20;;;;;;4924045;29;20535;-57
2021/06/28 02:53:40;;;;;;;13.20;12.10;;;16.60;58.50;;;;;;4922808;29;20860;-57
2021/06/28 02:56:12;;;;;;;14.33;13.23;;;16.60;57.60;;;;;;4914700;29;20439;-53
2021/06/28 02:58:46;;;;;;;15.23;13.83;;;16.50;57.00;;;;;;4923803;29;20448;-57
2021/06/28 03:01:14;;;;;;;14.03;12.83;;;16.50;58.30;;;;;;4924096;29;20448;-54
2021/06/28 03:03:40;;;;;;;14.83;13.57;;;16.50;57.30;;;;;;4929169;29;20829;-56
2021/06/28 03:06:06;;;;;;;13.67;12.37;;;16.50;58.80;;;;;;4923445;29;20442;-57
2021/06/28 03:08:32;;;;;;;14.40;13.20;;;16.50;59.00;;;;;;4915060;29;20436;-55
2021/06/28 03:11:01;;;;;;;14.00;12.70;;;16.50;59.20;;;;;;4923382;29;20448;-56
2021/06/28 03:13:26;;;;;;;14.33;13.13;;;16.50;60.30;;;;;;4919640;29;20441;-55
2021/06/28 03:15:52;;;;;;;15.53;14.10;;;16.50;60.60;;;;;;4924303;29;20436;-56
2021/06/28 03:18:17;;;;;;;13.50;12.33;;;16.60;60.90;;;;;;4918613;29;20245;-57
2021/06/28 03:20:43;;;;;;;14.00;12.90;;;16.60;58.40;;;;;;4921627;29;20203;-56
2021/06/28 03:23:09;;;;;;;14.43;13.20;;;16.70;56.10;;;;;;4917734;29;20248;-54
2021/06/28 03:25:35;;;;;;;14.03;12.93;;;16.70;55.00;;;;;;4922546;29;20244;-59
2021/06/28 03:28:00;;;;;;;15.30;13.83;;;16.70;52.30;;;;;;4914419;29;20468;-58
2021/06/28 03:30:26;;;;;;;14.10;13.00;;;16.80;46.10;;;;;;4922774;29;20263;-55
2021/06/28 03:32:51;;;;;;;15.33;13.93;;;16.70;48.60;;;;;;4914053;29;20271;-53
2021/06/28 03:35:17;;;;;;;14.13;13.00;;;16.60;50.50;;;;;;4898512;29;20563;-56
2021/06/28 03:37:42;;;;;;;15.37;13.77;;;16.60;50.10;;;;;;4916328;29;20252;-58
2021/06/28 03:40:10;;;;;;;13.43;12.33;;;16.60;51.40;;;;;;4924547;29;20192;-56
2021/06/28 03:42:37;;;;;;;13.93;12.80;;;16.70;48.90;;;;;;4914377;29;20200;-57
2021/06/28 03:45:05;;;;;;;13.77;12.67;;;16.70;50.50;;;;;;4919325;29;20481;-57
2021/06/28 03:47:31;;;;;;;13.60;12.43;;;16.70;45.60;;;;;;4915332;29;20429;-55
2021/06/28 03:49:56;;;;;;;14.23;13.03;;;16.70;48.90;;;;;;4913187;29;20527;-55
2021/06/28 03:52:22;;;;;;;14.20;12.77;;;16.70;47.90;;;;;;4913432;29;20557;-57
2021/06/28 03:54:48;;;;;;;13.33;12.20;;;16.80;49.10;;;;;;4913465;29;20197;-56
2021/06/28 03:57:13;;;;;;;13.80;12.67;;;16.80;47.30;;;;;;4939976;29;20970;-56
2021/06/28 03:59:39;;;;;;;14.67;13.37;;;16.90;44.10;;;;;;4924775;29;20293;-56
2021/06/28 04:02:04;;;;;;;13.47;12.37;;;16.90;44.00;;;;;;4914293;29;20189;-56
2021/06/28 04:04:30;;;;;;;14.57;13.23;;;17.00;41.50;;;;;;4919103;29;20301;-52
2021/06/28 04:06:55;;;;;;;15.87;14.23;;;17.00;38.00;;;;;;4915785;29;20197;-57
2021/06/28 04:09:21;;;;;;;13.33;12.30;;;17.10;36.90;;;;;;4914450;29;20212;-57
2021/06/28 04:11:46;;;;;;;14.13;12.93;;;17.10;30.00;;;;;;4924205;29;20191;-55
2021/06/28 04:14:13;;;;;;;14.17;12.97;;;17.20;30.20;;;;;;4913538;29;20280;-57
2021/06/28 04:16:38;;;;;;;13.20;12.10;;;17.30;27.60;;;;;;4935464;29;20188;-56
2021/06/28 04:19:04;;;;;;;14.50;13.30;;;17.30;23.10;;;;;;4917956;29;20486;-58
2021/06/28 04:21:34;;;;;;;13.33;12.23;;;17.50;17.50;;;;;;4919159;29;20202;-55
2021/06/28 04:24:03;;;;;;;15.17;13.00;;;17.60;8.20;;;;;;4920144;29;20894;-56
2021/06/28 04:26:31;;;;;;;12.87;11.87;;;17.60;9.40;;;;;;4930316;29;20792;-56
2021/06/28 04:28:57;;;;;;;13.40;12.30;;;17.60;7.30;;;;;;4930311;29;20781;-56
2021/06/28 04:31:22;;;;;;;13.57;12.33;;;17.60;3.40;;;;;;4924596;29;20432;-56
2021/06/28 04:33:48;;;;;;;14.10;12.90;;;17.60;1.00;;;;;;4925185;29;20489;-55
2021/06/28 04:36:13;;;;;;;13.70;12.40;;;17.60;1.00;;;;;;4912394;29;20223;-57
2021/06/28 04:38:39;;;;;;;13.37;12.27;;;17.70;1.00;;;;;;4927422;29;20190;-56
2021/06/28 04:41:05;;;;;;;13.90;12.80;;;17.70;1.00;;;;;;4917817;29;20201;-57
2021/06/28 04:43:31;;;;;;;14.23;13.10;;;17.70;1.00;;;;;;4926239;29;20474;-53
2021/06/28 04:45:56;;;;;;;13.87;12.43;;;17.70;1.00;;;;;;4939444;29;20196;-56
2021/06/28 04:48:22;;;;;;;15.00;13.70;;;17.80;1.00;;;;;;4947039;29;20208;-57
2021/06/28 04:50:48;;;;;;;14.00;12.80;;;17.90;1.00;;;;;;4916238;29;20212;-52
2021/06/28 04:53:14;;;;;;;13.90;12.50;;;18.00;1.00;;;;;;4913659;29;20525;-55
2021/06/28 04:55:39;;;;;;;13.97;12.70;;;18.00;1.00;;;;;;4916563;29;20199;-54
2021/06/28 04:58:05;;;;;;;13.80;12.80;;;18.10;1.00;;;;;;4930631;29;20444;-56
2021/06/28 05:00:30;;;;;;;14.40;13.30;;;18.10;1.00;;;;;;4917202;29;20261;-57
2021/06/28 05:02:56;;;;;;;12.77;11.73;;;18.10;1.00;;;;;;4938355;29;20218;-57
2021/06/28 05:05:22;;;;;;;13.93;12.77;;;18.10;1.00;;;;;;4918765;29;20186;-56
2021/06/28 05:07:47;;;;;;;15.60;13.93;;;18.00;1.00;;;;;;4921241;29;20216;-58
2021/06/28 05:10:15;;;;;;;15.00;13.50;;;18.00;1.00;;;;;;4914845;29;20182;-56
2021/06/28 05:12:40;;;;;;;13.13;11.93;;;18.10;1.00;;;;;;4912775;29;20198;-57
2021/06/28 05:15:08;;;;;;;13.73;12.63;;;18.10;1.00;;;;;;4913743;29;20453;-57
2021/06/28 05:17:34;;;;;;;14.10;12.90;;;18.10;1.00;;;;;;4925717;29;20526;-63
2021/06/28 05:20:01;;;;;;;13.70;12.60;;;18.10;1.00;;;;;;4939769;29;20488;-57
2021/06/28 05:22:26;;;;;;;13.13;12.13;;;18.20;1.00;;;;;;4930392;29;20441;-57
2021/06/28 05:24:52;;;;;;;13.30;12.10;;;18.20;1.00;;;;;;4922843;29;20437;-52
2021/06/28 05:27:17;;;;;;;13.20;12.17;;;18.30;1.00;;;;;;4918551;29;20684;-53
2021/06/28 05:29:43;;;;;;;13.10;12.00;;;18.50;1.00;;;;;;4925837;29;20187;-57
2021/06/28 05:32:09;;;;;;;13.70;12.60;;;18.60;1.00;;;;;;4929856;29;20194;-57
2021/06/28 05:34:34;;;;;;;14.03;12.87;;;18.70;1.00;;;;;;4923752;29;20202;-55
2021/06/28 05:37:00;;;;;;;13.33;12.07;;;18.70;1.00;;;;;;4911867;29;20194;-64
2021/06/28 05:39:25;;;;;;;13.50;12.20;;;19.00;1.00;;;;;;4916452;29;20281;-59
2021/06/28 05:41:51;;;;;;;13.03;11.90;;;19.30;1.00;;;;;;4916515;29;20190;-58
2021/06/28 05:44:16;;;;;;;12.87;11.87;;;19.40;1.00;;;;;;4924566;29;20219;-57
2021/06/28 05:46:42;;;;;;;13.00;12.00;;;19.60;1.00;;;;;;4932534;29;20185;-57
2021/06/28 05:49:08;;;;;;;13.10;12.10;;;19.80;1.00;;;;;;4925214;29;20192;-58
2021/06/28 05:51:34;;;;;;;12.93;12.03;;;19.90;1.00;;;;;;4925726;29;20672;-56
2021/06/28 05:54:00;;;;;;;13.10;11.90;;;20.00;1.00;;;;;;4922329;29;20884;-58
2021/06/28 05:56:25;;;;;;;14.03;12.93;;;20.00;1.00;;;;;;4921322;29;20519;-56
2021/06/28 05:58:51;;;;;;;13.37;12.27;;;20.10;1.00;;;;;;4930221;29;20434;-58
2021/06/28 06:01:17;;;;;;;13.30;12.20;;;20.20;1.00;;;;;;4916176;29;20284;-55
2021/06/28 06:03:42;;;;;;;14.43;13.13;;;20.20;1.00;;;;;;4921690;29;20230;-57
2021/06/28 06:06:08;;;;;;;13.73;12.70;;;20.20;1.00;;;;;;4933182;29;20182;-57
2021/06/28 06:08:37;;;;;;;14.60;13.40;;;20.10;1.00;;;;;;4925270;29;20182;-57
2021/06/28 06:11:03;;;;;;;14.00;12.90;;;19.90;1.00;;;;;;4916913;29;20313;-57
2021/06/28 06:13:28;;;;;;;13.07;11.97;;;19.90;1.00;;;;;;4917582;29;20445;-58
2021/06/28 06:15:55;;;;;;;14.20;13.10;;;20.00;1.00;;;;;;4917653;29;20791;-57
2021/06/28 06:18:22;;;;;;;13.80;12.60;;;20.10;1.00;;;;;;4915486;29;20844;-58
2021/06/28 06:20:48;;;;;;;13.83;12.80;;;20.10;1.00;;;;;;4917813;29;20473;-57
2021/06/28 06:23:15;;;;;;;14.80;13.60;;;20.10;1.00;;;;;;4918111;29;20484;-56
2021/06/28 06:25:42;;;;;;;13.53;12.40;;;20.00;1.00;;;;;;4915894;29;20194;-56
2021/06/28 06:28:08;;;;;;;13.47;12.30;;;20.20;1.00;;;;;;4913467;29;20432;-59
2021/06/28 06:30:34;;;;;;;14.23;13.17;;;20.40;1.00;;;;;;4919860;29;20452;-59
2021/06/28 06:33:00;;;;;;;13.77;12.77;;;20.70;1.00;;;;;;4911480;29;20253;-59
2021/06/28 06:35:26;;;;;;;13.30;12.30;;;20.90;1.00;;;;;;4908154;29;20445;-59
2021/06/28 06:37:54;;;;;;;13.77;12.77;;;21.20;1.00;;;;;;4906882;29;20888;-59
2021/06/28 06:40:20;;;;;;;12.90;12.00;;;21.40;1.00;;;;;;4910819;29;20190;-58
2021/06/28 06:42:46;;;;;;;13.20;12.03;;;21.40;1.00;;;;;;4919442;29;20572;-60
2021/06/28 06:45:13;;;;;;;13.37;12.37;;;21.70;1.00;;;;;;4914784;29;20446;-60
2021/06/28 06:47:40;;;;;;;13.87;12.87;;;21.70;1.00;;;;;;4916733;29;20534;-59
2021/06/28 06:50:06;;;;;;;13.50;12.43;;;21.70;1.00;;;;;;4916618;29;20441;-58
2021/06/28 06:52:31;;;;;;;12.90;12.00;;;21.80;1.00;;;;;;4918951;29;21015;-58
2021/06/28 06:54:57;;;;;;;12.17;11.20;;;22.00;1.00;;;;;;4923108;29;20241;-53
2021/06/28 06:57:23;;;;;;;12.00;11.10;;;22.30;1.00;;;;;;4928291;29;20182;-56
2021/06/28 06:59:48;;;;;;;12.33;11.30;;;22.40;99.90;;;;;;4918693;29;20585;-54
2021/06/28 07:02:14;;;;;;;13.00;12.10;;;22.50;99.90;;;;;;4913937;29;20194;-53
2021/06/28 07:04:40;;;;;;;12.00;11.10;;;22.70;1.00;;;;;;4913661;29;20604;-51
2021/06/28 07:07:05;;;;;;;12.63;11.77;;;22.70;1.00;;;;;;4921129;29;20202;-56
2021/06/28 07:09:31;;;;;;;13.10;12.20;;;23.00;1.00;;;;;;4903116;29;20467;-55
2021/06/28 07:11:56;;;;;;;12.30;11.40;;;23.00;1.00;;;;;;4915008;29;20219;-56
2021/06/28 07:14:22;;;;;;;12.90;12.00;;;23.00;1.00;;;;;;4913078;29;20737;-53
2021/06/28 07:16:48;;;;;;;12.63;11.80;;;23.10;24.80;;;;;;4941382;29;20184;-55
2021/06/28 07:19:14;;;;;;;12.20;11.30;;;23.10;1.00;;;;;;4951276;29;20932;-54
2021/06/28 07:21:39;;;;;;;11.87;10.97;;;23.20;16.60;;;;;;4951056;29;20210;-55
2021/06/28 07:24:06;;;;;;;12.80;11.80;;;23.40;1.00;;;;;;4938525;29;20216;-50
2021/06/28 07:26:33;;;;;;;13.10;11.90;;;23.50;1.00;;;;;;4913518;29;20186;-57
2021/06/28 07:28:59;;;;;;;12.47;11.27;;;23.50;1.00;;;;;;4915160;29;20454;-56
2021/06/28 07:31:24;;;;;;;12.60;11.80;;;23.50;99.90;;;;;;4913220;29;20422;-54
2021/06/28 07:33:50;;;;;;;12.93;11.97;;;23.50;1.00;;;;;;4924576;29;20930;-56
2021/06/28 07:36:16;;;;;;;12.70;11.80;;;23.60;1.00;;;;;;4951603;29;20189;-55
2021/06/28 07:38:42;;;;;;;13.10;12.30;;;23.70;8.60;;;;;;4946161;28;20182;-52
2021/06/28 07:41:08;;;;;;;12.33;11.43;;;23.80;1.00;;;;;;4932262;29;20269;-54
2021/06/28 07:43:34;;;;;;;13.00;12.20;;;23.80;1.00;;;;;;4930558;29;20474;-55
2021/06/28 07:46:01;;;;;;;12.10;11.20;;;23.90;1.00;;;;;;4929808;29;20430;-56
2021/06/28 07:48:26;;;;;;;11.50;10.60;;;24.10;99.90;;;;;;4914938;29;20535;-57
2021/06/28 07:50:52;;;;;;;13.67;12.47;;;24.40;99.90;;;;;;4912946;29;20505;-55
2021/06/28 07:53:18;;;;;;;13.50;12.57;;;24.60;99.90;;;;;;4895869;29;20210;-54
2021/06/28 07:55:44;;;;;;;13.17;12.33;;;24.70;1.00;;;;;;4925149;29;20194;-55
2021/06/28 07:58:10;;;;;;;12.30;11.50;;;24.90;1.00;;;;;;4936795;29;20197;-55
2021/06/28 08:00:36;;;;;;;11.87;11.07;;;25.30;1.00;;;;;;4926332;29;20513;-56
2021/06/28 08:03:04;;;;;;;12.27;11.47;;;25.40;1.00;;;;;;4933146;29;21020;-54
2021/06/28 08:05:30;;;;;;;12.00;11.17;;;25.70;1.00;;;;;;4932706;29;20584;-55
2021/06/28 08:07:56;;;;;;;11.97;11.17;;;26.00;99.90;;;;;;4925244;28;20553;-56
2021/06/28 08:10:21;;;;;;;12.70;11.90;;;26.20;1.00;;;;;;4929637;29;20190;-54
2021/06/28 08:12:48;;;;;;;13.10;11.73;;;26.30;99.90;;;;;;4940433;29;20190;-54
2021/06/28 08:15:15;;;;;;;12.77;11.97;;;26.40;1.00;;;;;;4931648;29;20601;-56
2021/06/28 08:17:41;;;;;;;12.00;11.20;;;26.60;62.30;;;;;;4895173;29;20473;-55
2021/06/28 08:20:08;;;;;;;12.20;11.40;;;26.70;99.90;;;;;;4913357;29;20587;-55
2021/06/28 08:22:35;;;;;;;12.10;11.30;;;26.90;99.90;;;;;;4914031;29;20449;-56
2021/06/28 08:25:01;;;;;;;12.60;11.80;;;27.10;1.00;;;;;;4911332;29;20441;-57
2021/06/28 08:27:27;;;;;;;11.50;10.70;;;27.10;1.00;;;;;;4924601;29;20422;-54
2021/06/28 08:29:52;;;;;;;12.03;11.23;;;27.30;1.00;;;;;;4894207;29;20430;-57
2021/06/28 08:32:18;;;;;;;12.00;11.10;;;27.50;1.00;;;;;;4914048;29;23577;-56
2021/06/28 08:34:44;;;;;;;12.20;11.50;;;27.60;1.00;;;;;;4911965;29;20187;-65
2021/06/28 08:37:10;;;;;;;11.90;11.10;;;27.60;1.00;;;;;;4912673;29;20222;-59
2021/06/28 08:39:35;;;;;;;11.33;10.63;;;27.60;1.00;;;;;;4918321;29;20197;-59
2021/06/28 08:42:05;;;;;;;12.60;11.90;;;27.70;1.00;;;;;;4919058;29;20195;-59
2021/06/28 08:44:31;;;;;;;12.70;11.90;;;27.90;1.00;;;;;;4921600;29;20214;-60
2021/06/28 08:46:58;;;;;;;12.13;11.43;;;27.90;1.00;;;;;;4917383;29;20852;-59
2021/06/28 08:49:24;;;;;;;12.70;11.90;;;28.00;99.90;;;;;;4912456;29;20427;-59
2021/06/28 08:51:50;;;;;;;13.17;12.13;;;28.00;99.90;;;;;;4934400;29;20447;-53
2021/06/28 08:54:16;;;;;;;12.30;11.43;;;28.10;99.90;;;;;;4919380;29;20826;-59
2021/06/28 08:56:46;;;;;;;12.03;11.23;;;28.20;99.90;;;;;;4917466;29;20445;-60
2021/06/28 08:59:12;;;;;;;12.20;11.40;;;28.20;99.90;;;;;;4919404;29;20425;-59
2021/06/28 09:01:39;;;;;;;11.80;11.10;;;28.40;99.90;;;;;;4916384;29;20915;-59
2021/06/28 09:04:06;;;;;;;11.30;10.50;;;28.60;99.90;;;;;;4920228;29;20489;-62
2021/06/28 09:06:32;;;;;;;11.50;10.80;;;28.80;99.90;;;;;;4920886;29;20437;-60
2021/06/28 09:09:03;;;;;;;11.70;11.00;;;29.00;99.90;;;;;;4922203;29;20515;-59
2021/06/28 09:11:33;;;;;;;11.90;11.10;;;29.20;99.90;;;;;;4917876;29;20664;-62
2021/06/28 09:14:02;;;;;;;12.03;11.07;;;29.40;99.90;;;;;;4915977;29;20917;-59
2021/06/28 09:16:30;;;;;;;10.67;10.07;;;29.60;99.90;;;;;;4927216;29;20917;-60
2021/06/28 09:19:06;;;;;;;12.07;11.33;;;29.90;99.90;;;;;;4915270;29;20529;-61
2021/06/28 09:21:37;;;;;;;11.20;10.60;;;30.20;99.90;;;;;;4915668;29;20414;-59
2021/06/28 09:24:05;;;;;;;11.57;10.87;;;30.30;99.90;;;;;;4915609;29;20493;-60
2021/06/28 09:26:35;;;;;;;11.87;11.10;;;30.70;99.90;;;;;;4921187;29;20840;-60
2021/06/28 09:29:04;;;;;;;10.77;10.17;;;31.10;99.90;;;;;;4919103;29;20423;-60
2021/06/28 09:31:39;;;;;;;11.30;10.70;;;31.50;99.90;;;;;;4916493;29;20426;-60
2021/06/28 09:34:06;;;;;;;11.87;10.87;;;32.00;99.90;;;;;;4917457;29;20437;-60
2021/06/28 09:36:31;;;;;;;11.50;10.70;;;32.40;99.90;;;;;;4915399;29;20793;-60
2021/06/28 09:38:57;;;;;;;10.97;10.37;;;32.90;99.90;;;;;;4916170;29;20450;-59
2021/06/28 09:41:32;;;;;;;10.47;9.87;;;33.60;99.90;;;;;;4927645;29;20190;-57
2021/06/28 09:44:06;;;;;;;11.10;10.37;;;34.10;99.90;;;;;;4924417;29;20208;-59
2021/06/28 09:46:33;;;;;;;10.70;10.20;;;34.40;99.90;;;;;;4924817;29;20429;-59
2021/06/28 09:48:59;;;;;;;10.47;9.87;;;34.80;99.90;;;;;;4922898;29;20441;-60
2021/06/28 09:51:31;;;;;;;10.77;10.17;;;35.20;99.90;;;;;;4932422;29;20436;-58
2021/06/28 09:54:06;;;;;;;9.70;9.20;;;35.70;99.90;;;;;;4934173;29;20841;-59
2021/06/28 09:56:40;;;;;;;10.40;9.80;;;35.70;99.90;;;;;;4933555;29;20428;-60
2021/06/28 09:59:35;;;;;;;10.97;10.27;;;35.90;99.90;;;;;;4933512;29;20414;-59
2021/06/28 10:02:19;;;;;;;9.90;9.40;;;36.00;99.90;;;;;;4933244;29;20968;-59
2021/06/28 10:05:12;;;;;;;11.10;10.40;;;36.50;99.90;;;;;;4933791;29;21100;-63
2021/06/28 10:07:39;;;;;;;9.90;9.30;;;36.80;99.90;;;;;;4931532;29;20440;-59
2021/06/28 10:10:11;;;;;;;9.97;9.37;;;36.90;99.90;;;;;;4928235;29;20437;-59
2021/06/28 10:12:39;;;;;;;9.93;9.33;;;37.00;99.90;;;;;;4924314;29;20438;-59
2021/06/28 10:15:08;;;;;;;9.27;8.67;;;37.40;99.90;;;;;;4914975;29;20399;-59
2021/06/28 10:17:34;;;;;;;9.93;9.43;;;37.90;99.90;;;;;;4925281;29;20517;-62
2021/06/28 10:19:59;;;;;;;9.47;9.00;;;38.40;99.90;;;;;;4933867;29;20500;-60
2021/06/28 10:22:25;;;;;;;10.43;9.93;;;38.90;99.90;;;;;;4929923;29;20444;-61
2021/06/28 10:24:51;;;;;;;9.30;8.80;;;38.20;99.90;;;;;;4933306;29;20221;-58
2021/06/28 10:27:17;;;;;;;9.70;9.20;;;38.30;99.90;;;;;;4931614;29;20261;-61
2021/06/28 10:29:43;;;;;;;8.90;8.50;;;38.90;99.90;;;;;;4933352;29;20407;-59
2021/06/28 10:32:11;;;;;;;9.50;9.00;;;39.00;99.90;;;;;;4929280;29;20437;-59
2021/06/28 10:34:40;;;;;;;9.67;9.17;;;38.90;99.90;;;;;;4933863;29;20562;-59
2021/06/28 10:37:30;;;;;;;9.23;8.73;;;39.00;99.90;;;;;;4932488;29;20430;-58
2021/06/28 10:39:58;;;;;;;9.37;8.77;;;39.60;99.90;;;;;;4916061;29;20199;-58
2021/06/28 10:42:35;;;;;;;9.10;8.70;;;39.60;99.90;;;;;;4916078;29;20411;-60
2021/06/28 10:45:02;;;;;;;8.70;8.20;;;39.80;99.90;;;;;;4907276;29;20457;-59
2021/06/28 10:47:28;;;;;;;9.30;8.90;;;40.10;99.90;;;;;;4926447;29;20468;-58
2021/06/28 10:49:54;;;;;;;9.80;9.30;;;39.50;99.90;;;;;;4918969;29;20418;-59
2021/06/28 10:52:38;;;;;;;8.77;8.37;;;38.70;99.90;;;;;;4926167;29;20422;-59
2021/06/28 10:55:36;;;;;;;9.60;9.10;;;37.90;99.90;;;;;;4922109;29;20422;-59
2021/06/28 10:58:23;;;;;;;9.87;9.27;;;37.40;99.90;;;;;;4929849;29;20465;-59
2021/06/28 11:00:52;;;;;;;9.87;9.37;;;36.90;99.90;;;;;;4920651;29;20834;-59
2021/06/28 11:03:23;;;;;;;9.80;9.30;;;36.30;99.90;;;;;;4919344;29;20497;-59
2021/06/28 11:06:24;;;;;;;10.50;9.90;;;35.80;99.90;;;;;;4908806;29;20443;-63
2021/06/28 11:09:08;;;;;;;9.43;8.93;;;35.30;99.90;;;;;;4912014;29;20445;-59
2021/06/28 11:11:46;;;;;;;10.27;9.70;;;34.70;99.90;;;;;;4930159;29;20430;-60
2021/06/28 11:14:20;;;;;;;10.50;9.83;;;34.70;99.90;;;;;;4921051;29;20433;-59
2021/06/28 11:17:09;;;;;;;9.60;9.00;;;34.60;99.90;;;;;;4914217;29;20422;-60
2021/06/28 11:19:58;;;;;;;10.10;9.50;;;34.30;99.90;;;;;;4911466;29;20490;-59
2021/06/28 11:22:27;;;;;;;10.63;10.03;;;34.20;99.90;;;;;;4920930;29;20922;-58
2021/06/28 11:25:08;;;;;;;10.10;9.60;;;34.10;99.90;;;;;;4915609;29;20458;-59
2021/06/28 11:27:35;;;;;;;9.60;9.10;;;34.40;99.90;;;;;;4911601;29;20422;-59
2021/06/28 11:30:02;;;;;;;9.60;9.10;;;34.50;99.90;;;;;;4911499;29;20521;-59
2021/06/28 11:32:30;;;;;;;9.47;8.97;;;34.50;99.90;;;;;;4911812;29;20856;-59
2021/06/28 11:34:57;;;;;;;10.13;9.63;;;34.60;99.90;;;;;;4912316;29;20419;-60
2021/06/28 11:37:24;;;;;;;9.80;9.30;;;34.60;99.90;;;;;;4912500;29;20431;-58
2021/06/28 11:39:55;;;;;;;9.70;9.20;;;34.80;99.90;;;;;;4917507;29;20461;-59
2021/06/28 11:42:42;;;;;;;9.88;9.38;;;34.80;99.90;;;;;;4922362;29;20422;-59
2021/06/28 11:45:12;;;;;;;11.27;10.57;;;35.10;99.90;;;;;;4928410;29;20185;-59
2021/06/28 11:47:48;;;;;;;10.00;9.50;;;35.30;99.90;;;;;;4921232;29;20478;-60
2021/06/28 11:50:33;;;;;;;10.87;10.27;;;35.30;99.90;;;;;;4912769;29;20574;-62
2021/06/28 11:53:09;;;;;;;10.33;9.83;;;35.30;99.90;;;;;;4920562;29;20757;-58
2021/06/28 11:55:41;;;;;;;10.00;9.50;;;35.40;99.90;;;;;;4931316;29;20453;-58
2021/06/28 11:58:07;;;;;;;10.10;9.60;;;34.80;99.90;;;;;;4933470;29;20441;-59
2021/06/28 12:00:33;;;;;;;9.80;9.30;;;34.70;99.90;;;;;;4939237;29;20524;-59
2021/06/28 12:03:14;;;;;;;9.93;9.43;;;34.50;99.90;;;;;;4931712;29;20206;-57
2021/06/28 12:05:40;;;;;;;8.40;7.90;;;34.70;99.90;;;;;;4919376;29;20214;-64
2021/06/28 12:08:06;;;;;;;10.10;9.60;;;34.70;99.90;;;;;;4926100;29;20422;-58
2021/06/28 12:10:32;;;;;;;10.00;9.27;;;34.80;99.90;;;;;;4913953;29;20993;-58
2021/06/28 12:12:58;;;;;;;11.37;10.80;;;34.60;99.90;;;;;;4929748;29;20186;-55
2021/06/28 12:15:25;;;;;;;10.90;9.93;;;34.40;99.90;;;;;;4931475;29;20528;-52
2021/06/28 12:17:51;;;;;;;10.57;9.97;;;34.50;99.90;;;;;;4929866;29;20414;-58
2021/06/28 12:20:19;;;;;;;9.90;9.40;;;34.70;99.90;;;;;;4930299;29;20951;-56
2021/06/28 12:22:45;;;;;;;9.52;9.02;;;34.80;99.90;;;;;;4916952;29;20182;-57
2021/06/28 12:25:13;;;;;;;9.93;9.43;;;34.70;99.90;;;;;;4914271;29;20186;-56
2021/06/28 12:27:41;;;;;;;9.43;8.93;;;34.80;99.90;;;;;;4924620;29;20720;-57
2021/06/28 12:30:09;;;;;;;9.00;8.60;;;35.00;99.90;;;;;;4918066;29;21000;-57
2021/06/28 12:32:41;;;;;;;9.80;9.30;;;35.20;99.90;;;;;;4930999;29;20846;-57
2021/06/28 12:35:10;;;;;;;9.03;8.53;;;35.30;99.90;;;;;;4925808;29;20765;-57